createdAt,value
2023-07-24T04:37:26.899Z,3.70
2023-07-24T04:43:38.683Z,3.72
2023-07-24T04:46:45.772Z,3.20
2023-07-24T04:49:50.382Z,3.75
2023-07-24T04:56:21.367Z,3.53
2023-07-24T05:06:00.848Z,3.50
2023-07-24T05:09:07.435Z,3.40
2023-07-24T05:18:51.364Z,7.45
2023-07-24T05:21:55.518Z,3.20
2023-07-24T05:25:05.713Z,3.13
2023-07-24T05:28:09.409Z,3.13
2023-07-24T05:31:13.757Z,3.88
2023-07-24T05:34:18.514Z,3.13
2023-07-24T05:37:29.795Z,2.97
2023-07-24T05:40:38.529Z,2.67
2023-07-24T05:43:51.314Z,2.42
2023-07-24T05:46:56.184Z,2.45
2023-07-24T05:56:58.639Z,3.20
2023-07-24T06:00:03.215Z,2.80
2023-07-24T06:03:16.562Z,2.40
2023-07-24T06:06:27.687Z,2.50
2023-07-24T06:09:31.939Z,2.47
2023-07-24T06:12:39.774Z,2.38
2023-07-24T06:15:45.039Z,1.88
2023-07-24T06:18:52.872Z,5.57
2023-07-24T06:21:57.510Z,2.13
2023-07-24T06:25:10.062Z,1.90
2023-07-24T06:28:14.338Z,1.70
2023-07-24T06:31:18.242Z,3.47
2023-07-24T06:44:27.669Z,2.28
2023-07-24T06:47:34.753Z,2.28
2023-07-24T06:50:39.993Z,2.20
2023-07-24T06:53:44.945Z,2.13
2023-07-24T06:56:58.317Z,2.22
2023-07-24T07:00:03.317Z,2.00
2023-07-24T07:03:21.338Z,2.40
2023-07-24T07:06:28.710Z,2.08
2023-07-24T07:09:58.578Z,2.10
2023-07-24T07:13:22.942Z,2.17
2023-07-24T07:16:27.043Z,2.00
2023-07-24T07:19:41.354Z,2.10
2023-07-24T07:26:08.869Z,2.10
2023-07-24T07:32:30.653Z,2.05
2023-07-24T07:38:55.456Z,1.95
2023-07-24T07:48:37.676Z,2.80
2023-07-24T07:59:03.223Z,2.05
2023-07-24T08:05:27.647Z,1.90
2023-07-24T08:08:31.957Z,2.30
2023-07-24T08:11:37.448Z,2.00
2023-07-24T08:14:40.813Z,2.22
2023-07-24T08:17:58.685Z,2.95
2023-07-24T08:21:06.573Z,1.77
2023-07-24T08:24:10.835Z,1.90
2023-07-24T08:31:23.013Z,2.17
2023-07-24T08:34:49.544Z,1.70
2023-07-24T08:48:16.722Z,2.38
2023-07-24T08:54:54.211Z,2.58
2023-07-24T09:01:40.688Z,3.13
2023-07-24T09:04:45.045Z,2.03
2023-07-24T09:07:51.766Z,2.10
2023-07-24T09:10:56.435Z,1.88
2023-07-24T09:14:01.351Z,2.33
2023-07-24T09:24:27.012Z,2.17
2023-07-24T09:27:32.581Z,3.60
2023-07-24T09:30:40.041Z,2.47
2023-07-24T09:33:48.020Z,2.03
2023-07-24T09:44:10.109Z,2.10
2023-07-24T09:50:21.130Z,3.25
2023-07-24T09:53:42.438Z,2.10
2023-07-24T09:57:20.663Z,1.83
2023-07-24T10:00:28.973Z,2.00
2023-07-24T10:03:36.375Z,2.92
2023-07-24T10:06:41.217Z,5.07
2023-07-24T10:09:48.147Z,2.05
2023-07-24T10:12:56.911Z,2.05
2023-07-24T10:16:01.356Z,2.05
2023-07-24T10:19:17.502Z,3.28
2023-07-24T10:22:26.826Z,2.65
2023-07-24T10:25:44.866Z,2.40
2023-07-24T10:28:54.739Z,2.50
2023-07-24T10:32:00.081Z,2.47
2023-07-24T10:35:16.709Z,2.28
2023-07-24T10:38:21.652Z,2.40
2023-07-24T10:41:37.941Z,2.50
2023-07-24T10:44:48.926Z,2.03
2023-07-24T10:47:54.688Z,1.95
2023-07-24T10:51:03.361Z,2.45
2023-07-24T10:54:13.424Z,2.17
2023-07-24T10:57:23.977Z,4.25
2023-07-24T11:00:30.126Z,3.25
2023-07-24T11:03:34.147Z,2.72
2023-07-24T11:06:38.824Z,2.40
2023-07-24T11:09:51.842Z,2.67
2023-07-24T11:13:00.421Z,2.42
2023-07-24T11:16:09.262Z,2.97
2023-07-24T11:19:13.347Z,3.17
2023-07-24T11:25:34.711Z,2.38
2023-07-24T11:28:45.377Z,2.58
2023-07-24T11:31:55.136Z,2.10
2023-07-24T11:34:59.298Z,1.80
2023-07-24T11:38:05.870Z,2.00
2023-07-24T11:41:11.221Z,1.88
2023-07-24T11:47:26.947Z,3.85
2023-07-24T11:50:33.107Z,2.85
2023-07-24T11:53:37.238Z,3.03
2023-07-24T11:56:41.998Z,2.67
2023-07-24T11:59:48.326Z,2.83
2023-07-24T12:02:54.962Z,2.60
2023-07-24T12:06:01.074Z,2.92
2023-07-24T12:09:10.252Z,2.72
2023-07-24T12:12:18.530Z,3.50
2023-07-24T12:15:22.627Z,3.97
2023-07-24T12:18:27.446Z,4.05
2023-07-24T12:21:31.455Z,3.45
2023-07-24T12:24:35.909Z,3.75
2023-07-24T12:27:42.067Z,4.28
2023-07-24T12:30:45.857Z,4.13
2023-07-24T12:33:51.438Z,4.68
2023-07-24T12:36:57.492Z,4.68
2023-07-24T12:40:01.651Z,4.15
2023-07-24T12:43:07.593Z,4.70
2023-07-24T12:49:27.820Z,4.80
2023-07-24T12:52:33.529Z,4.72
2023-07-24T12:55:40.773Z,5.53
2023-07-24T12:58:45.995Z,4.55
2023-07-24T13:01:51.024Z,5.00
2023-07-24T13:04:55.231Z,3.70
2023-07-24T13:07:59.390Z,5.25
2023-07-24T13:11:03.426Z,5.85
2023-07-24T13:14:08.125Z,6.03
2023-07-24T13:17:13.984Z,6.68
2023-07-24T13:20:17.913Z,5.28
2023-07-24T13:23:21.354Z,5.75
2023-07-24T13:26:26.461Z,4.93
2023-07-24T13:29:33.259Z,5.22
2023-07-24T13:32:37.158Z,4.50
2023-07-24T13:35:41.443Z,4.55
2023-07-24T13:38:46.536Z,4.40
2023-07-24T13:41:50.451Z,4.30
2023-07-24T13:44:54.801Z,4.40
2023-07-24T13:51:18.259Z,4.03
2023-07-24T13:54:22.589Z,3.78
2023-07-24T13:57:30.045Z,4.00
2023-07-24T14:00:34.951Z,3.33
2023-07-24T14:03:39.079Z,3.20
2023-07-24T14:06:47.396Z,3.60
2023-07-24T14:09:51.098Z,3.17
2023-07-24T14:12:55.503Z,3.78
2023-07-24T14:16:00.180Z,3.50
2023-07-24T14:19:04.400Z,3.17
2023-07-24T14:22:09.005Z,3.47
2023-07-24T14:25:12.635Z,3.15
2023-07-24T14:28:15.973Z,12.77
2023-07-24T14:31:20.558Z,3.35
2023-07-24T14:34:25.143Z,2.97
2023-07-24T14:37:29.538Z,3.38
2023-07-24T14:40:34.104Z,2.85
2023-07-24T14:43:38.232Z,3.42
2023-07-24T14:46:43.391Z,4.15
2023-07-24T14:49:47.449Z,3.72
2023-07-24T14:52:51.649Z,4.30
2023-07-24T14:55:56.282Z,4.15
2023-07-24T14:59:00.119Z,4.15
2023-07-24T15:02:03.571Z,4.30
2023-07-24T15:05:07.908Z,4.88
2023-07-24T15:08:12.612Z,4.78
2023-07-24T15:11:16.649Z,4.82
2023-07-24T15:14:20.778Z,5.13
2023-07-24T15:17:24.794Z,6.05
2023-07-24T15:20:29.538Z,5.75
2023-07-24T15:23:32.848Z,4.93
2023-07-24T15:26:41.037Z,5.38
2023-07-24T15:29:44.276Z,5.10
2023-07-24T15:32:48.673Z,5.13
2023-07-24T15:35:56.885Z,5.68
2023-07-24T15:39:01.581Z,4.90
2023-07-24T15:42:05.569Z,5.07
2023-07-24T15:45:10.698Z,4.38
2023-07-24T15:48:18.127Z,5.25
2023-07-24T15:51:24.367Z,4.40
2023-07-24T15:54:27.605Z,5.13
2023-07-24T15:57:33.742Z,4.35
2023-07-24T16:00:38.924Z,4.38
2023-07-24T16:03:44.006Z,5.25
2023-07-24T16:06:47.866Z,3.95
2023-07-24T16:09:52.395Z,3.75
2023-07-24T16:13:01.330Z,3.50
2023-07-24T16:16:06.261Z,4.40
2023-07-24T16:19:21.178Z,4.28
2023-07-24T16:22:26.365Z,4.70
2023-07-24T16:25:30.798Z,4.07
2023-07-24T16:28:35.229Z,4.40
2023-07-24T16:31:39.788Z,3.80
2023-07-24T16:34:44.642Z,4.13
2023-07-24T16:37:49.554Z,4.55
2023-07-24T16:40:54.738Z,4.55
2023-07-24T16:47:17.174Z,4.57
2023-07-24T16:50:21.490Z,4.15
2023-07-24T16:53:24.924Z,4.00
2023-07-24T16:56:28.156Z,4.32
2023-07-24T16:59:33.113Z,4.10
2023-07-24T17:02:39.247Z,4.47
2023-07-24T17:05:44.283Z,5.93
2023-07-24T17:08:49.918Z,7.68
2023-07-24T17:11:53.601Z,7.15
2023-07-24T17:14:57.910Z,6.97
2023-07-24T17:18:02.355Z,7.32
2023-07-24T17:21:06.968Z,6.53
2023-07-24T17:24:13.541Z,5.50
2023-07-24T17:27:18.292Z,5.90
2023-07-24T17:30:22.661Z,6.90
2023-07-24T17:33:26.662Z,5.50
2023-07-24T17:36:30.935Z,3.88
2023-07-24T17:39:34.915Z,4.80
2023-07-24T17:42:39.539Z,3.90
2023-07-24T17:45:43.679Z,4.60
2023-07-24T17:48:48.101Z,3.85
2023-07-24T17:51:52.228Z,3.85
2023-07-24T17:54:55.891Z,4.03
2023-07-24T17:57:59.358Z,4.13
2023-07-24T18:01:03.115Z,3.95
2023-07-24T18:04:09.846Z,4.05
2023-07-24T18:07:14.245Z,3.50
2023-07-24T18:10:17.845Z,3.80
2023-07-24T18:13:22.594Z,4.05
2023-07-24T18:16:26.714Z,3.58
2023-07-24T18:19:31.038Z,4.22
2023-07-24T18:22:34.897Z,3.45
2023-07-24T18:25:39.160Z,4.47
2023-07-24T18:28:43.747Z,3.95
2023-07-24T18:31:47.818Z,4.38
2023-07-24T18:34:52.729Z,3.70
2023-07-24T18:37:56.203Z,4.18
2023-07-24T18:41:01.053Z,4.40
2023-07-24T18:44:05.241Z,3.97
2023-07-24T18:47:09.451Z,3.80
2023-07-24T18:50:13.273Z,3.85
2023-07-24T18:53:19.005Z,4.00
2023-07-24T18:56:25.909Z,3.67
2023-07-24T18:59:31.256Z,3.92
2023-07-24T19:02:35.774Z,3.70
2023-07-24T19:05:40.274Z,3.40
2023-07-24T19:08:44.214Z,2.92
2023-07-24T19:11:49.968Z,3.25
2023-07-24T19:14:53.066Z,3.38
2023-07-24T19:18:01.180Z,3.15
2023-07-24T19:21:06.801Z,3.30
2023-07-24T19:24:12.346Z,3.53
2023-07-24T19:27:16.523Z,4.07
2023-07-24T19:30:21.642Z,4.25
2023-07-24T19:33:27.659Z,3.50
2023-07-24T19:36:30.864Z,4.35
2023-07-24T19:39:34.099Z,2.95
2023-07-24T19:42:37.660Z,3.40
2023-07-24T19:45:41.618Z,3.30
2023-07-24T19:48:45.534Z,3.03
2023-07-24T19:51:51.640Z,3.55
2023-07-24T19:54:55.208Z,3.25
2023-07-24T19:57:59.135Z,3.15
2023-07-24T20:01:06.868Z,3.40
2023-07-24T20:04:10.241Z,3.42
2023-07-24T20:07:15.115Z,3.78
2023-07-24T20:10:19.081Z,3.40
2023-07-24T20:13:23.570Z,2.90
2023-07-24T20:16:27.943Z,3.20
2023-07-24T20:19:31.904Z,3.15
2023-07-24T20:22:36.412Z,3.03
2023-07-24T20:25:47.086Z,3.58
2023-07-24T20:28:51.174Z,2.92
2023-07-24T20:31:55.266Z,2.63
2023-07-24T20:35:00.228Z,3.30
2023-07-24T20:38:07.153Z,2.97
2023-07-24T20:41:10.798Z,3.33
2023-07-24T20:44:14.975Z,3.20
2023-07-24T20:47:19.154Z,3.40
2023-07-24T20:50:25.283Z,3.17
2023-07-24T20:53:30.572Z,2.85
2023-07-24T20:56:36.164Z,4.03
2023-07-24T20:59:40.963Z,3.42
2023-07-24T21:02:45.898Z,3.40
2023-07-24T21:05:50.050Z,3.28
2023-07-24T21:08:54.624Z,3.38
2023-07-24T21:12:02.646Z,3.53
2023-07-24T21:15:08.448Z,3.45
2023-07-24T21:18:14.707Z,3.33
2023-07-24T21:21:20.854Z,3.58
2023-07-24T21:27:29.304Z,3.10
2023-07-24T21:30:33.146Z,3.25
2023-07-24T21:33:38.191Z,3.50
2023-07-24T21:36:46.560Z,4.30
2023-07-24T21:39:51.302Z,3.53
2023-07-24T21:42:55.188Z,3.70
2023-07-24T21:45:59.685Z,3.55
2023-07-24T21:49:03.931Z,3.70
2023-07-24T21:52:07.896Z,4.10
2023-07-24T21:55:12.422Z,2.70
2023-07-24T21:58:17.219Z,4.18
2023-07-24T22:01:23.497Z,4.10
2023-07-24T22:04:27.054Z,3.47
2023-07-24T22:07:30.996Z,4.20
2023-07-24T22:10:34.795Z,6.97
2023-07-24T22:13:38.713Z,3.92
2023-07-24T22:16:43.093Z,4.15
2023-07-24T22:19:50.545Z,3.92
2023-07-24T23:18:49.175Z,5.38
2023-07-24T23:25:17.986Z,5.25
2023-07-24T23:28:22.499Z,6.60
2023-07-24T23:31:26.856Z,5.82
2023-07-24T23:44:45.357Z,5.63
2023-07-24T23:47:51.517Z,7.05
2023-07-24T23:50:58.586Z,8.10
2023-07-24T23:54:03.947Z,10.45
2023-07-24T23:57:08.523Z,6.97
